sensor_id;sensor_type;location;lat;lon;timestamp;P1;durP1;ratioP1;P2;durP2;ratioP2
735;SDS011;352;48.626;9.238;2023-04-24T00:00:04;1.17;;;1.07;;
735;SDS011;352;48.626;9.238;2023-04-24T00:02:32;1.17;;;1.07;;
735;SDS011;352;48.626;9.238;2023-04-24T00:04:59;1.20;;;1.10;;
735;SDS011;352;48.626;9.238;2023-04-24T00:07:27;2.07;;;1.23;;
735;SDS011;352;48.626;9.238;2023-04-24T00:09:54;1.10;;;1.00;;
735;SDS011;352;48.626;9.238;2023-04-24T00:12:21;2.53;;;1.10;;
735;SDS011;352;48.626;9.238;2023-04-24T00:14:48;1.23;;;1.13;;
735;SDS011;352;48.626;9.238;2023-04-24T00:17:14;4.33;;;1.00;;
735;SDS011;352;48.626;9.238;2023-04-24T00:19:46;1.73;;;1.13;;
735;SDS011;352;48.626;9.238;2023-04-24T00:22:13;1.60;;;1.23;;
735;SDS011;352;48.626;9.238;2023-04-24T00:24:40;1.20;;;1.10;;
735;SDS011;352;48.626;9.238;2023-04-24T00:27:06;1.47;;;1.10;;
735;SDS011;352;48.626;9.238;2023-04-24T00:29:33;1.47;;;1.20;;
735;SDS011;352;48.626;9.238;2023-04-24T00:32:00;1.57;;;1.10;;
735;SDS011;352;48.626;9.238;2023-04-24T00:34:26;1.17;;;1.00;;
735;SDS011;352;48.626;9.238;2023-04-24T00:36:54;1.63;;;1.30;;
735;SDS011;352;48.626;9.238;2023-04-24T00:39:21;0.90;;;0.90;;
735;SDS011;352;48.626;9.238;2023-04-24T00:41:48;1.60;;;1.17;;
735;SDS011;352;48.626;9.238;2023-04-24T00:44:16;1.40;;;0.90;;
735;SDS011;352;48.626;9.238;2023-04-24T00:46:43;3.87;;;1.10;;
735;SDS011;352;48.626;9.238;2023-04-24T00:49:10;3.93;;;1.30;;
735;SDS011;352;48.626;9.238;2023-04-24T00:51:37;1.53;;;1.10;;
735;SDS011;352;48.626;9.238;2023-04-24T00:54:07;1.10;;;1.00;;
735;SDS011;352;48.626;9.238;2023-04-24T00:56:33;1.33;;;1.10;;
735;SDS011;352;48.626;9.238;2023-04-24T00:59:00;1.80;;;0.97;;
735;SDS011;352;48.626;9.238;2023-04-24T01:01:27;1.53;;;0.83;;
735;SDS011;352;48.626;9.238;2023-04-24T01:03:55;2.00;;;1.10;;
735;SDS011;352;48.626;9.238;2023-04-24T01:06:23;1.37;;;1.20;;
735;SDS011;352;48.626;9.238;2023-04-24T01:08:56;2.20;;;0.90;;
735;SDS011;352;48.626;9.238;2023-04-24T01:11:24;2.10;;;1.00;;
735;SDS011;352;48.626;9.238;2023-04-24T01:13:51;2.03;;;1.17;;
735;SDS011;352;48.626;9.238;2023-04-24T01:16:18;1.77;;;0.97;;
735;SDS011;352;48.626;9.238;2023-04-24T01:18:45;2.10;;;1.10;;
735;SDS011;352;48.626;9.238;2023-04-24T01:21:13;1.63;;;1.00;;
735;SDS011;352;48.626;9.238;2023-04-24T01:23:42;1.77;;;0.93;;
735;SDS011;352;48.626;9.238;2023-04-24T01:26:09;1.47;;;1.13;;
735;SDS011;352;48.626;9.238;2023-04-24T01:28:36;1.47;;;1.10;;
735;SDS011;352;48.626;9.238;2023-04-24T01:31:03;2.40;;;1.07;;
735;SDS011;352;48.626;9.238;2023-04-24T01:33:30;1.90;;;1.37;;
735;SDS011;352;48.626;9.238;2023-04-24T01:35:57;1.30;;;1.00;;
735;SDS011;352;48.626;9.238;2023-04-24T01:38:24;3.20;;;1.17;;
735;SDS011;352;48.626;9.238;2023-04-24T01:40:52;1.20;;;1.10;;
735;SDS011;352;48.626;9.238;2023-04-24T01:43:19;3.20;;;1.27;;
735;SDS011;352;48.626;9.238;2023-04-24T01:45:46;1.90;;;1.00;;
735;SDS011;352;48.626;9.238;2023-04-24T01:48:13;2.63;;;1.20;;
735;SDS011;352;48.626;9.238;2023-04-24T01:50:40;1.33;;;1.23;;
735;SDS011;352;48.626;9.238;2023-04-24T01:53:06;1.00;;;1.00;;
735;SDS011;352;48.626;9.238;2023-04-24T01:55:33;0.73;;;0.73;;
735;SDS011;352;48.626;9.238;2023-04-24T01:58:01;3.10;;;1.10;;
735;SDS011;352;48.626;9.238;2023-04-24T02:00:28;1.67;;;1.10;;
735;SDS011;352;48.626;9.238;2023-04-24T02:02:55;1.60;;;1.00;;
735;SDS011;352;48.626;9.238;2023-04-24T02:05:21;1.40;;;1.00;;
735;SDS011;352;48.626;9.238;2023-04-24T02:07:48;1.80;;;0.93;;
735;SDS011;352;48.626;9.238;2023-04-24T02:10:15;1.97;;;1.77;;
735;SDS011;352;48.626;9.238;2023-04-24T02:12:42;1.33;;;1.10;;
735;SDS011;352;48.626;9.238;2023-04-24T02:15:10;2.50;;;1.00;;
735;SDS011;352;48.626;9.238;2023-04-24T02:17:37;1.40;;;1.07;;
735;SDS011;352;48.626;9.238;2023-04-24T02:20:04;1.23;;;0.90;;
735;SDS011;352;48.626;9.238;2023-04-24T02:22:32;3.17;;;0.90;;
735;SDS011;352;48.626;9.238;2023-04-24T02:24:59;1.33;;;1.23;;
735;SDS011;352;48.626;9.238;2023-04-24T02:27:26;1.27;;;1.10;;
735;SDS011;352;48.626;9.238;2023-04-24T02:29:53;1.47;;;0.90;;
735;SDS011;352;48.626;9.238;2023-04-24T02:32:21;2.37;;;0.97;;
735;SDS011;352;48.626;9.238;2023-04-24T02:34:48;1.20;;;1.10;;
735;SDS011;352;48.626;9.238;2023-04-24T02:37:15;1.10;;;1.00;;
735;SDS011;352;48.626;9.238;2023-04-24T02:39:41;1.87;;;1.10;;
735;SDS011;352;48.626;9.238;2023-04-24T02:42:08;1.33;;;1.23;;
735;SDS011;352;48.626;9.238;2023-04-24T02:44:35;1.43;;;1.03;;
735;SDS011;352;48.626;9.238;2023-04-24T02:47:02;1.17;;;1.17;;
735;SDS011;352;48.626;9.238;2023-04-24T02:49:30;1.40;;;1.03;;
735;SDS011;352;48.626;9.238;2023-04-24T02:51:57;2.07;;;1.40;;
735;SDS011;352;48.626;9.238;2023-04-24T02:54:23;2.10;;;1.50;;
735;SDS011;352;48.626;9.238;2023-04-24T02:56:50;1.50;;;1.37;;
735;SDS011;352;48.626;9.238;2023-04-24T02:59:17;2.77;;;1.17;;
735;SDS011;352;48.626;9.238;2023-04-24T03:01:44;1.87;;;1.27;;
735;SDS011;352;48.626;9.238;2023-04-24T03:04:10;1.93;;;1.10;;
735;SDS011;352;48.626;9.238;2023-04-24T03:06:38;1.67;;;1.57;;
735;SDS011;352;48.626;9.238;2023-04-24T03:09:05;1.57;;;1.47;;
735;SDS011;352;48.626;9.238;2023-04-24T03:11:32;1.30;;;1.20;;
735;SDS011;352;48.626;9.238;2023-04-24T03:13:58;1.40;;;1.30;;
735;SDS011;352;48.626;9.238;2023-04-24T03:16:25;1.57;;;1.20;;
735;SDS011;352;48.626;9.238;2023-04-24T03:18:52;1.80;;;1.10;;
735;SDS011;352;48.626;9.238;2023-04-24T03:21:18;1.83;;;1.00;;
735;SDS011;352;48.626;9.238;2023-04-24T03:23:47;1.90;;;1.20;;
735;SDS011;352;48.626;9.238;2023-04-24T03:26:13;1.30;;;1.20;;
735;SDS011;352;48.626;9.238;2023-04-24T03:28:40;1.93;;;1.07;;
735;SDS011;352;48.626;9.238;2023-04-24T03:31:07;1.30;;;1.10;;
735;SDS011;352;48.626;9.238;2023-04-24T03:33:33;1.40;;;1.30;;
735;SDS011;352;48.626;9.238;2023-04-24T03:36:01;1.93;;;1.10;;
735;SDS011;352;48.626;9.238;2023-04-24T03:38:27;1.67;;;1.30;;
735;SDS011;352;48.626;9.238;2023-04-24T03:40:55;3.60;;;1.20;;
735;SDS011;352;48.626;9.238;2023-04-24T03:43:22;1.33;;;1.23;;
735;SDS011;352;48.626;9.238;2023-04-24T03:45:49;3.10;;;1.50;;
735;SDS011;352;48.626;9.238;2023-04-24T03:48:15;1.90;;;1.30;;
735;SDS011;352;48.626;9.238;2023-04-24T03:50:42;1.90;;;1.27;;
735;SDS011;352;48.626;9.238;2023-04-24T03:53:09;1.47;;;1.20;;
735;SDS011;352;48.626;9.238;2023-04-24T03:55:36;3.20;;;2.10;;
735;SDS011;352;48.626;9.238;2023-04-24T03:58:04;1.47;;;1.30;;
735;SDS011;352;48.626;9.238;2023-04-24T04:00:30;3.70;;;1.30;;
735;SDS011;352;48.626;9.238;2023-04-24T04:02:58;1.73;;;1.30;;
735;SDS011;352;48.626;9.238;2023-04-24T04:05:24;1.50;;;1.17;;
735;SDS011;352;48.626;9.238;2023-04-24T04:07:51;1.70;;;1.50;;
735;SDS011;352;48.626;9.238;2023-04-24T04:10:18;1.50;;;1.33;;
735;SDS011;352;48.626;9.238;2023-04-24T04:12:44;2.10;;;1.30;;
735;SDS011;352;48.626;9.238;2023-04-24T04:15:12;1.57;;;1.20;;
735;SDS011;352;48.626;9.238;2023-04-24T04:17:39;2.00;;;1.50;;
735;SDS011;352;48.626;9.238;2023-04-24T04:20:06;1.40;;;1.30;;
735;SDS011;352;48.626;9.238;2023-04-24T04:22:35;1.57;;;1.37;;
735;SDS011;352;48.626;9.238;2023-04-24T04:25:01;1.83;;;1.43;;
735;SDS011;352;48.626;9.238;2023-04-24T04:27:29;1.70;;;1.60;;
735;SDS011;352;48.626;9.238;2023-04-24T04:29:57;2.67;;;2.00;;
735;SDS011;352;48.626;9.238;2023-04-24T04:32:25;2.37;;;1.90;;
735;SDS011;352;48.626;9.238;2023-04-24T04:34:52;2.93;;;1.70;;
735;SDS011;352;48.626;9.238;2023-04-24T04:37:19;1.87;;;1.60;;
735;SDS011;352;48.626;9.238;2023-04-24T04:39:46;1.60;;;1.50;;
735;SDS011;352;48.626;9.238;2023-04-24T04:42:12;1.50;;;1.40;;
735;SDS011;352;48.626;9.238;2023-04-24T04:44:40;3.10;;;1.37;;
735;SDS011;352;48.626;9.238;2023-04-24T04:47:07;2.30;;;1.50;;
735;SDS011;352;48.626;9.238;2023-04-24T04:49:37;2.93;;;1.50;;
735;SDS011;352;48.626;9.238;2023-04-24T04:52:04;3.53;;;1.80;;
735;SDS011;352;48.626;9.238;2023-04-24T04:54:31;2.30;;;1.60;;
735;SDS011;352;48.626;9.238;2023-04-24T04:56:57;2.80;;;1.50;;
735;SDS011;352;48.626;9.238;2023-04-24T04:59:25;1.60;;;1.50;;
735;SDS011;352;48.626;9.238;2023-04-24T05:01:52;7.27;;;2.40;;
735;SDS011;352;48.626;9.238;2023-04-24T05:04:19;2.70;;;1.93;;
735;SDS011;352;48.626;9.238;2023-04-24T05:06:47;2.17;;;1.85;;
735;SDS011;352;48.626;9.238;2023-04-24T05:09:16;2.97;;;2.00;;
735;SDS011;352;48.626;9.238;2023-04-24T05:11:42;2.10;;;1.90;;
735;SDS011;352;48.626;9.238;2023-04-24T05:14:09;3.43;;;2.40;;
735;SDS011;352;48.626;9.238;2023-04-24T05:16:37;2.70;;;1.60;;
735;SDS011;352;48.626;9.238;2023-04-24T05:19:04;3.20;;;2.80;;
735;SDS011;352;48.626;9.238;2023-04-24T05:21:31;2.33;;;2.17;;
735;SDS011;352;48.626;9.238;2023-04-24T05:23:59;2.60;;;1.70;;
735;SDS011;352;48.626;9.238;2023-04-24T05:26:25;2.03;;;1.80;;
735;SDS011;352;48.626;9.238;2023-04-24T05:28:52;2.47;;;2.00;;
735;SDS011;352;48.626;9.238;2023-04-24T05:31:19;2.95;;;2.00;;
735;SDS011;352;48.626;9.238;2023-04-24T05:33:46;2.67;;;2.30;;
735;SDS011;352;48.626;9.238;2023-04-24T05:36:12;2.27;;;2.17;;
735;SDS011;352;48.626;9.238;2023-04-24T05:38:39;2.00;;;1.80;;
735;SDS011;352;48.626;9.238;2023-04-24T05:41:07;1.90;;;1.80;;
735;SDS011;352;48.626;9.238;2023-04-24T05:43:34;3.60;;;2.33;;
735;SDS011;352;48.626;9.238;2023-04-24T05:46:00;2.70;;;2.40;;
735;SDS011;352;48.626;9.238;2023-04-24T05:48:27;2.87;;;2.67;;
735;SDS011;352;48.626;9.238;2023-04-24T05:50:54;2.27;;;1.90;;
735;SDS011;352;48.626;9.238;2023-04-24T05:53:21;2.30;;;1.77;;
735;SDS011;352;48.626;9.238;2023-04-24T05:55:48;3.80;;;2.10;;
735;SDS011;352;48.626;9.238;2023-04-24T05:58:16;4.77;;;1.80;;
735;SDS011;352;48.626;9.238;2023-04-24T06:00:43;2.57;;;2.13;;
735;SDS011;352;48.626;9.238;2023-04-24T06:03:11;2.20;;;2.07;;
735;SDS011;352;48.626;9.238;2023-04-24T06:05:38;1.93;;;1.80;;
735;SDS011;352;48.626;9.238;2023-04-24T06:08:04;3.53;;;1.83;;
735;SDS011;352;48.626;9.238;2023-04-24T06:10:31;1.70;;;1.60;;
735;SDS011;352;48.626;9.238;2023-04-24T06:12:58;2.10;;;2.00;;
735;SDS011;352;48.626;9.238;2023-04-24T06:15:28;1.80;;;1.70;;
735;SDS011;352;48.626;9.238;2023-04-24T06:17:56;1.50;;;1.40;;
735;SDS011;352;48.626;9.238;2023-04-24T06:20:23;1.97;;;1.67;;
735;SDS011;352;48.626;9.238;2023-04-24T06:22:50;1.60;;;1.50;;
735;SDS011;352;48.626;9.238;2023-04-24T06:25:17;2.57;;;1.80;;
735;SDS011;352;48.626;9.238;2023-04-24T06:27:44;4.10;;;2.03;;
735;SDS011;352;48.626;9.238;2023-04-24T06:30:11;2.43;;;2.23;;
735;SDS011;352;48.626;9.238;2023-04-24T06:32:39;1.53;;;1.43;;
735;SDS011;352;48.626;9.238;2023-04-24T06:35:07;2.13;;;2.00;;
735;SDS011;352;48.626;9.238;2023-04-24T06:37:34;2.53;;;2.33;;
735;SDS011;352;48.626;9.238;2023-04-24T06:40:01;3.20;;;2.40;;
735;SDS011;352;48.626;9.238;2023-04-24T06:42:28;2.40;;;2.20;;
735;SDS011;352;48.626;9.238;2023-04-24T06:44:55;2.23;;;2.13;;
735;SDS011;352;48.626;9.238;2023-04-24T06:47:21;2.10;;;2.00;;
735;SDS011;352;48.626;9.238;2023-04-24T06:49:49;3.10;;;2.27;;
735;SDS011;352;48.626;9.238;2023-04-24T06:52:17;2.50;;;1.87;;
735;SDS011;352;48.626;9.238;2023-04-24T06:54:44;2.03;;;1.90;;
735;SDS011;352;48.626;9.238;2023-04-24T06:57:11;2.27;;;2.10;;
735;SDS011;352;48.626;9.238;2023-04-24T06:59:38;2.53;;;2.30;;
735;SDS011;352;48.626;9.238;2023-04-24T07:02:04;2.20;;;2.10;;
735;SDS011;352;48.626;9.238;2023-04-24T07:04:31;2.40;;;2.20;;
735;SDS011;352;48.626;9.238;2023-04-24T07:06:59;3.40;;;2.20;;
735;SDS011;352;48.626;9.238;2023-04-24T07:09:26;2.53;;;2.20;;
735;SDS011;352;48.626;9.238;2023-04-24T07:11:53;2.57;;;2.37;;
735;SDS011;352;48.626;9.238;2023-04-24T07:14:21;2.40;;;2.20;;
735;SDS011;352;48.626;9.238;2023-04-24T07:16:48;2.40;;;2.10;;
735;SDS011;352;48.626;9.238;2023-04-24T07:19:14;4.47;;;2.53;;
735;SDS011;352;48.626;9.238;2023-04-24T07:21:41;2.37;;;2.20;;
735;SDS011;352;48.626;9.238;2023-04-24T07:24:09;2.43;;;2.23;;
735;SDS011;352;48.626;9.238;2023-04-24T07:26:38;3.93;;;2.70;;
735;SDS011;352;48.626;9.238;2023-04-24T07:29:05;4.60;;;4.20;;
735;SDS011;352;48.626;9.238;2023-04-24T07:31:31;2.80;;;2.60;;
735;SDS011;352;48.626;9.238;2023-04-24T07:33:58;2.90;;;2.63;;
735;SDS011;352;48.626;9.238;2023-04-24T07:36:25;2.70;;;2.50;;
735;SDS011;352;48.626;9.238;2023-04-24T07:38:52;3.13;;;2.30;;
735;SDS011;352;48.626;9.238;2023-04-24T07:41:21;2.03;;;1.93;;
735;SDS011;352;48.626;9.238;2023-04-24T07:43:49;1.83;;;1.73;;
735;SDS011;352;48.626;9.238;2023-04-24T07:46:15;1.83;;;1.73;;
735;SDS011;352;48.626;9.238;2023-04-24T07:48:42;2.13;;;2.03;;
735;SDS011;352;48.626;9.238;2023-04-24T07:51:09;2.33;;;2.13;;
735;SDS011;352;48.626;9.238;2023-04-24T07:53:38;3.63;;;2.60;;
735;SDS011;352;48.626;9.238;2023-04-24T07:56:05;2.30;;;2.07;;
735;SDS011;352;48.626;9.238;2023-04-24T07:58:33;2.03;;;1.87;;
735;SDS011;352;48.626;9.238;2023-04-24T08:01:00;2.10;;;1.93;;
735;SDS011;352;48.626;9.238;2023-04-24T08:03:26;2.60;;;2.40;;
735;SDS011;352;48.626;9.238;2023-04-24T08:05:53;2.33;;;2.20;;
735;SDS011;352;48.626;9.238;2023-04-24T08:08:20;1.97;;;1.87;;
735;SDS011;352;48.626;9.238;2023-04-24T08:10:48;2.00;;;1.90;;
735;SDS011;352;48.626;9.238;2023-04-24T08:13:15;3.00;;;2.67;;
735;SDS011;352;48.626;9.238;2023-04-24T08:15:43;2.50;;;2.30;;
735;SDS011;352;48.626;9.238;2023-04-24T08:18:10;3.90;;;3.60;;
735;SDS011;352;48.626;9.238;2023-04-24T08:20:38;3.30;;;3.20;;
735;SDS011;352;48.626;9.238;2023-04-24T08:23:05;5.37;;;3.23;;
735;SDS011;352;48.626;9.238;2023-04-24T08:25:32;3.47;;;3.37;;
735;SDS011;352;48.626;9.238;2023-04-24T08:28:00;3.47;;;3.37;;
735;SDS011;352;48.626;9.238;2023-04-24T08:30:28;3.40;;;3.30;;
735;SDS011;352;48.626;9.238;2023-04-24T08:32:56;4.00;;;3.80;;
735;SDS011;352;48.626;9.238;2023-04-24T08:35:22;4.37;;;4.07;;
735;SDS011;352;48.626;9.238;2023-04-24T08:37:49;4.00;;;3.70;;
735;SDS011;352;48.626;9.238;2023-04-24T08:40:18;3.87;;;3.50;;
735;SDS011;352;48.626;9.238;2023-04-24T08:42:48;3.87;;;3.67;;
735;SDS011;352;48.626;9.238;2023-04-24T08:45:18;3.80;;;3.60;;
735;SDS011;352;48.626;9.238;2023-04-24T08:47:45;4.17;;;3.80;;
735;SDS011;352;48.626;9.238;2023-04-24T08:50:14;3.57;;;3.30;;
735;SDS011;352;48.626;9.238;2023-04-24T08:52:41;3.77;;;2.90;;
735;SDS011;352;48.626;9.238;2023-04-24T08:55:08;3.33;;;3.13;;
735;SDS011;352;48.626;9.238;2023-04-24T08:57:36;3.40;;;3.20;;
735;SDS011;352;48.626;9.238;2023-04-24T09:00:05;3.37;;;3.20;;
735;SDS011;352;48.626;9.238;2023-04-24T09:02:33;4.13;;;3.57;;
735;SDS011;352;48.626;9.238;2023-04-24T09:05:00;3.73;;;3.53;;
735;SDS011;352;48.626;9.238;2023-04-24T09:07:29;3.77;;;3.57;;
735;SDS011;352;48.626;9.238;2023-04-24T09:09:57;3.50;;;3.30;;
735;SDS011;352;48.626;9.238;2023-04-24T09:12:26;4.23;;;3.83;;
735;SDS011;352;48.626;9.238;2023-04-24T09:14:52;3.70;;;3.50;;
735;SDS011;352;48.626;9.238;2023-04-24T09:17:20;3.70;;;3.40;;
735;SDS011;352;48.626;9.238;2023-04-24T09:19:48;3.67;;;3.50;;
735;SDS011;352;48.626;9.238;2023-04-24T09:22:15;3.23;;;3.13;;
735;SDS011;352;48.626;9.238;2023-04-24T09:24:44;3.43;;;3.23;;
735;SDS011;352;48.626;9.238;2023-04-24T09:27:11;3.50;;;3.30;;
735;SDS011;352;48.626;9.238;2023-04-24T09:29:39;3.40;;;3.20;;
735;SDS011;352;48.626;9.238;2023-04-24T09:32:20;3.83;;;3.50;;
735;SDS011;352;48.626;9.238;2023-04-24T09:34:49;3.90;;;3.47;;
735;SDS011;352;48.626;9.238;2023-04-24T09:37:30;3.53;;;3.33;;
735;SDS011;352;48.626;9.238;2023-04-24T09:40:13;3.90;;;3.60;;
735;SDS011;352;48.626;9.238;2023-04-24T09:42:43;3.60;;;3.23;;
735;SDS011;352;48.626;9.238;2023-04-24T09:45:11;3.40;;;3.20;;
735;SDS011;352;48.626;9.238;2023-04-24T09:47:38;3.23;;;3.03;;
735;SDS011;352;48.626;9.238;2023-04-24T09:50:12;2.97;;;2.83;;
735;SDS011;352;48.626;9.238;2023-04-24T09:52:40;3.30;;;3.00;;
735;SDS011;352;48.626;9.238;2023-04-24T09:55:15;3.40;;;3.20;;
735;SDS011;352;48.626;9.238;2023-04-24T09:57:47;3.03;;;2.93;;
735;SDS011;352;48.626;9.238;2023-04-24T10:00:17;3.70;;;3.50;;
735;SDS011;352;48.626;9.238;2023-04-24T10:02:48;3.23;;;3.13;;
735;SDS011;352;48.626;9.238;2023-04-24T10:05:16;3.60;;;3.30;;
735;SDS011;352;48.626;9.238;2023-04-24T10:07:43;3.37;;;3.17;;
735;SDS011;352;48.626;9.238;2023-04-24T10:10:11;3.23;;;3.07;;
735;SDS011;352;48.626;9.238;2023-04-24T10:12:39;2.90;;;2.80;;
735;SDS011;352;48.626;9.238;2023-04-24T10:15:08;3.03;;;2.83;;
735;SDS011;352;48.626;9.238;2023-04-24T10:17:37;5.20;;;3.17;;
735;SDS011;352;48.626;9.238;2023-04-24T10:20:05;3.47;;;3.17;;
735;SDS011;352;48.626;9.238;2023-04-24T10:22:33;3.17;;;3.00;;
735;SDS011;352;48.626;9.238;2023-04-24T10:25:00;2.90;;;2.70;;
735;SDS011;352;48.626;9.238;2023-04-24T10:27:30;3.20;;;3.00;;
735;SDS011;352;48.626;9.238;2023-04-24T10:29:59;3.20;;;3.00;;
735;SDS011;352;48.626;9.238;2023-04-24T10:32:27;2.63;;;2.53;;
735;SDS011;352;48.626;9.238;2023-04-24T10:34:55;2.93;;;2.80;;
735;SDS011;352;48.626;9.238;2023-04-24T10:37:21;2.70;;;2.60;;
735;SDS011;352;48.626;9.238;2023-04-24T10:39:49;2.77;;;2.67;;
735;SDS011;352;48.626;9.238;2023-04-24T10:42:19;3.23;;;2.50;;
735;SDS011;352;48.626;9.238;2023-04-24T10:44:47;2.93;;;2.83;;
735;SDS011;352;48.626;9.238;2023-04-24T10:47:15;2.50;;;2.40;;
735;SDS011;352;48.626;9.238;2023-04-24T10:49:42;3.00;;;2.80;;
735;SDS011;352;48.626;9.238;2023-04-24T10:52:09;2.57;;;2.40;;
735;SDS011;352;48.626;9.238;2023-04-24T10:54:41;2.73;;;2.63;;
735;SDS011;352;48.626;9.238;2023-04-24T10:57:25;2.90;;;2.80;;
735;SDS011;352;48.626;9.238;2023-04-24T11:00:14;2.70;;;2.50;;
735;SDS011;352;48.626;9.238;2023-04-24T11:02:45;3.00;;;2.90;;
735;SDS011;352;48.626;9.238;2023-04-24T11:05:15;2.60;;;2.50;;
735;SDS011;352;48.626;9.238;2023-04-24T11:10:39;3.00;;;2.80;;
735;SDS011;352;48.626;9.238;2023-04-24T11:13:06;2.77;;;2.67;;
735;SDS011;352;48.626;9.238;2023-04-24T11:15:34;2.90;;;2.70;;
735;SDS011;352;48.626;9.238;2023-04-24T11:18:02;3.23;;;3.13;;
735;SDS011;352;48.626;9.238;2023-04-24T11:20:29;2.97;;;2.67;;
735;SDS011;352;48.626;9.238;2023-04-24T11:22:58;3.40;;;3.20;;
735;SDS011;352;48.626;9.238;2023-04-24T11:25:30;3.00;;;2.90;;
735;SDS011;352;48.626;9.238;2023-04-24T11:28:02;3.40;;;3.30;;
735;SDS011;352;48.626;9.238;2023-04-24T11:30:31;3.33;;;3.23;;
735;SDS011;352;48.626;9.238;2023-04-24T11:33:03;2.80;;;2.70;;
735;SDS011;352;48.626;9.238;2023-04-24T11:35:30;2.97;;;2.80;;
735;SDS011;352;48.626;9.238;2023-04-24T11:38:02;3.37;;;3.23;;
735;SDS011;352;48.626;9.238;2023-04-24T11:40:30;3.37;;;3.10;;
735;SDS011;352;48.626;9.238;2023-04-24T11:42:59;2.87;;;2.77;;
735;SDS011;352;48.626;9.238;2023-04-24T11:45:27;2.80;;;2.70;;
735;SDS011;352;48.626;9.238;2023-04-24T11:47:54;2.80;;;2.70;;
735;SDS011;352;48.626;9.238;2023-04-24T11:50:23;2.80;;;2.70;;
735;SDS011;352;48.626;9.238;2023-04-24T11:52:51;2.73;;;2.53;;
735;SDS011;352;48.626;9.238;2023-04-24T11:55:22;2.60;;;2.50;;
735;SDS011;352;48.626;9.238;2023-04-24T11:57:52;2.60;;;2.50;;
735;SDS011;352;48.626;9.238;2023-04-24T12:00:22;3.00;;;2.90;;
735;SDS011;352;48.626;9.238;2023-04-24T12:02:49;2.60;;;2.50;;
735;SDS011;352;48.626;9.238;2023-04-24T12:05:19;2.60;;;2.40;;
735;SDS011;352;48.626;9.238;2023-04-24T12:07:48;2.33;;;2.13;;
735;SDS011;352;48.626;9.238;2023-04-24T12:10:19;2.63;;;2.53;;
735;SDS011;352;48.626;9.238;2023-04-24T12:12:46;2.40;;;2.20;;
735;SDS011;352;48.626;9.238;2023-04-24T12:15:15;3.97;;;2.20;;
735;SDS011;352;48.626;9.238;2023-04-24T12:17:43;2.10;;;2.00;;
735;SDS011;352;48.626;9.238;2023-04-24T12:20:10;2.00;;;1.90;;
735;SDS011;352;48.626;9.238;2023-04-24T12:22:45;2.23;;;2.13;;
735;SDS011;352;48.626;9.238;2023-04-24T12:25:14;2.70;;;2.27;;
735;SDS011;352;48.626;9.238;2023-04-24T12:27:41;5.37;;;4.87;;
735;SDS011;352;48.626;9.238;2023-04-24T12:30:10;3.00;;;2.90;;
735;SDS011;352;48.626;9.238;2023-04-24T12:32:40;2.63;;;2.53;;
735;SDS011;352;48.626;9.238;2023-04-24T12:35:08;2.73;;;2.60;;
735;SDS011;352;48.626;9.238;2023-04-24T12:37:35;2.20;;;2.10;;
735;SDS011;352;48.626;9.238;2023-04-24T12:40:05;2.90;;;2.80;;
735;SDS011;352;48.626;9.238;2023-04-24T12:42:34;3.00;;;2.80;;
735;SDS011;352;48.626;9.238;2023-04-24T12:45:02;2.80;;;2.70;;
735;SDS011;352;48.626;9.238;2023-04-24T12:47:31;3.47;;;3.17;;
735;SDS011;352;48.626;9.238;2023-04-24T12:49:58;5.17;;;3.70;;
735;SDS011;352;48.626;9.238;2023-04-24T12:52:26;3.40;;;3.20;;
735;SDS011;352;48.626;9.238;2023-04-24T12:54:54;3.33;;;3.23;;
735;SDS011;352;48.626;9.238;2023-04-24T12:57:22;3.40;;;3.20;;
735;SDS011;352;48.626;9.238;2023-04-24T12:59:53;2.97;;;2.87;;
735;SDS011;352;48.626;9.238;2023-04-24T13:02:21;3.30;;;3.10;;
735;SDS011;352;48.626;9.238;2023-04-24T13:04:49;3.17;;;2.97;;
735;SDS011;352;48.626;9.238;2023-04-24T13:07:17;3.53;;;3.23;;
735;SDS011;352;48.626;9.238;2023-04-24T13:09:44;3.30;;;3.07;;
735;SDS011;352;48.626;9.238;2023-04-24T13:12:11;3.17;;;2.70;;
735;SDS011;352;48.626;9.238;2023-04-24T13:14:38;3.47;;;3.17;;
735;SDS011;352;48.626;9.238;2023-04-24T13:17:07;3.47;;;3.30;;
735;SDS011;352;48.626;9.238;2023-04-24T13:19:35;3.00;;;2.90;;
735;SDS011;352;48.626;9.238;2023-04-24T13:22:02;3.40;;;3.20;;
735;SDS011;352;48.626;9.238;2023-04-24T13:24:30;3.40;;;3.20;;
735;SDS011;352;48.626;9.238;2023-04-24T13:26:57;3.00;;;2.90;;
735;SDS011;352;48.626;9.238;2023-04-24T13:29:25;3.57;;;3.17;;
735;SDS011;352;48.626;9.238;2023-04-24T13:31:52;3.23;;;2.90;;
735;SDS011;352;48.626;9.238;2023-04-24T13:34:21;3.30;;;3.10;;
735;SDS011;352;48.626;9.238;2023-04-24T13:36:48;2.90;;;2.80;;
735;SDS011;352;48.626;9.238;2023-04-24T13:39:16;3.27;;;2.97;;
735;SDS011;352;48.626;9.238;2023-04-24T13:41:42;3.13;;;2.90;;
735;SDS011;352;48.626;9.238;2023-04-24T13:44:10;3.50;;;3.20;;
735;SDS011;352;48.626;9.238;2023-04-24T13:46:36;3.30;;;3.10;;
735;SDS011;352;48.626;9.238;2023-04-24T13:49:03;2.60;;;2.50;;
735;SDS011;352;48.626;9.238;2023-04-24T13:51:32;3.00;;;2.80;;
735;SDS011;352;48.626;9.238;2023-04-24T13:53:59;2.67;;;2.57;;
735;SDS011;352;48.626;9.238;2023-04-24T13:56:26;2.67;;;2.53;;
735;SDS011;352;48.626;9.238;2023-04-24T13:58:52;3.00;;;2.80;;
735;SDS011;352;48.626;9.238;2023-04-24T14:01:20;2.90;;;2.70;;
735;SDS011;352;48.626;9.238;2023-04-24T14:03:49;2.83;;;2.60;;
735;SDS011;352;48.626;9.238;2023-04-24T14:06:16;3.20;;;2.90;;
735;SDS011;352;48.626;9.238;2023-04-24T14:08:44;3.43;;;2.90;;
735;SDS011;352;48.626;9.238;2023-04-24T14:11:11;2.53;;;2.33;;
735;SDS011;352;48.626;9.238;2023-04-24T14:13:38;3.20;;;2.63;;
735;SDS011;352;48.626;9.238;2023-04-24T14:16:06;2.50;;;2.30;;
735;SDS011;352;48.626;9.238;2023-04-24T14:18:33;2.80;;;2.60;;
735;SDS011;352;48.626;9.238;2023-04-24T14:21:01;2.70;;;2.50;;
735;SDS011;352;48.626;9.238;2023-04-24T14:23:28;3.43;;;2.70;;
735;SDS011;352;48.626;9.238;2023-04-24T14:25:56;2.80;;;2.60;;
735;SDS011;352;48.626;9.238;2023-04-24T14:28:23;3.23;;;2.53;;
735;SDS011;352;48.626;9.238;2023-04-24T14:30:50;2.30;;;2.20;;
735;SDS011;352;48.626;9.238;2023-04-24T14:33:17;3.17;;;2.97;;
735;SDS011;352;48.626;9.238;2023-04-24T14:35:44;3.30;;;3.10;;
735;SDS011;352;48.626;9.238;2023-04-24T14:38:12;2.80;;;2.67;;
735;SDS011;352;48.626;9.238;2023-04-24T14:40:39;2.70;;;2.50;;
735;SDS011;352;48.626;9.238;2023-04-24T14:43:07;3.00;;;2.90;;
735;SDS011;352;48.626;9.238;2023-04-24T14:45:34;2.97;;;2.77;;
735;SDS011;352;48.626;9.238;2023-04-24T14:48:02;2.97;;;2.80;;
735;SDS011;352;48.626;9.238;2023-04-24T14:50:29;3.13;;;2.93;;
735;SDS011;352;48.626;9.238;2023-04-24T14:52:56;2.87;;;2.67;;
735;SDS011;352;48.626;9.238;2023-04-24T14:55:23;2.60;;;2.40;;
735;SDS011;352;48.626;9.238;2023-04-24T14:57:50;3.17;;;2.60;;
735;SDS011;352;48.626;9.238;2023-04-24T15:00:19;2.83;;;2.63;;
735;SDS011;352;48.626;9.238;2023-04-24T15:02:48;2.70;;;2.50;;
735;SDS011;352;48.626;9.238;2023-04-24T15:05:14;2.90;;;2.70;;
735;SDS011;352;48.626;9.238;2023-04-24T15:07:41;3.23;;;3.03;;
735;SDS011;352;48.626;9.238;2023-04-24T15:10:08;3.40;;;2.80;;
735;SDS011;352;48.626;9.238;2023-04-24T15:12:36;2.67;;;2.53;;
735;SDS011;352;48.626;9.238;2023-04-24T15:15:03;2.57;;;2.47;;
735;SDS011;352;48.626;9.238;2023-04-24T15:17:31;2.40;;;2.30;;
735;SDS011;352;48.626;9.238;2023-04-24T15:19:58;2.47;;;2.37;;
735;SDS011;352;48.626;9.238;2023-04-24T15:22:25;3.07;;;2.77;;
735;SDS011;352;48.626;9.238;2023-04-24T15:24:52;2.93;;;2.50;;
735;SDS011;352;48.626;9.238;2023-04-24T15:27:19;2.67;;;2.47;;
735;SDS011;352;48.626;9.238;2023-04-24T15:29:46;2.50;;;2.40;;
735;SDS011;352;48.626;9.238;2023-04-24T15:32:12;2.30;;;2.20;;
735;SDS011;352;48.626;9.238;2023-04-24T15:34:40;2.60;;;2.50;;
735;SDS011;352;48.626;9.238;2023-04-24T15:37:07;2.80;;;2.60;;
735;SDS011;352;48.626;9.238;2023-04-24T15:39:34;2.43;;;2.33;;
735;SDS011;352;48.626;9.238;2023-04-24T15:42:00;3.13;;;2.97;;
735;SDS011;352;48.626;9.238;2023-04-24T15:44:27;2.70;;;2.60;;
735;SDS011;352;48.626;9.238;2023-04-24T15:46:54;2.70;;;2.60;;
735;SDS011;352;48.626;9.238;2023-04-24T15:49:21;4.47;;;2.53;;